createdAt,value
2023-05-14T00:01:55.878Z,6.10
2023-05-14T00:04:24.630Z,5.10
2023-05-14T00:06:53.213Z,5.40
2023-05-14T00:09:24.528Z,5.33
2023-05-14T00:11:53.566Z,5.70
2023-05-14T00:14:22.229Z,5.70
2023-05-14T00:16:51.266Z,5.73
2023-05-14T00:19:19.414Z,5.60
2023-05-14T00:21:49.096Z,5.00
2023-05-14T00:24:18.206Z,6.10
2023-05-14T00:26:48.240Z,5.50
2023-05-14T00:29:16.838Z,5.50
2023-05-14T00:31:46.987Z,6.03
2023-05-14T00:34:15.533Z,5.67
2023-05-14T00:36:44.790Z,5.80
2023-05-14T00:39:13.889Z,6.30
2023-05-14T00:41:45.718Z,6.20
2023-05-14T00:44:15.569Z,5.23
2023-05-14T00:46:44.514Z,5.83
2023-05-14T00:49:13.100Z,6.37
2023-05-14T00:51:47.084Z,5.50
2023-05-14T00:54:17.545Z,5.63
2023-05-14T00:56:47.642Z,4.80
2023-05-14T00:59:18.785Z,5.70
2023-05-14T01:01:47.569Z,5.83
2023-05-14T01:04:16.592Z,5.93
2023-05-14T01:06:56.942Z,5.70
2023-05-14T01:09:31.699Z,6.00
2023-05-14T01:12:12.844Z,5.43
2023-05-14T01:14:51.754Z,5.57
2023-05-14T01:17:22.942Z,6.33
2023-05-14T01:19:54.353Z,5.77
2023-05-14T01:22:24.523Z,5.63
2023-05-14T01:24:53.317Z,7.00
2023-05-14T01:27:27.673Z,6.47
2023-05-14T01:30:04.968Z,6.20
2023-05-14T01:32:34.736Z,5.83
2023-05-14T01:35:03.881Z,6.70
2023-05-14T01:37:36.157Z,5.77
2023-05-14T01:40:06.370Z,5.33
2023-05-14T01:42:34.802Z,6.23
2023-05-14T01:45:04.759Z,5.77
2023-05-14T01:47:33.294Z,5.90
2023-05-14T01:50:02.968Z,5.53
2023-05-14T01:52:33.219Z,5.80
2023-05-14T01:55:02.582Z,5.87
2023-05-14T01:57:31.342Z,5.53
2023-05-14T02:00:00.419Z,5.90
2023-05-14T02:02:33.937Z,5.30
2023-05-14T02:05:03.480Z,6.20
2023-05-14T02:07:34.091Z,6.23
2023-05-14T02:10:03.003Z,5.37
2023-05-14T02:12:33.072Z,6.20
2023-05-14T02:15:03.612Z,6.53
2023-05-14T02:17:34.541Z,6.57
2023-05-14T02:20:04.811Z,6.63
2023-05-14T02:22:46.049Z,6.03
2023-05-14T02:25:14.364Z,5.63
2023-05-14T02:27:46.103Z,5.63
2023-05-14T02:30:14.694Z,6.03
2023-05-14T02:32:44.140Z,5.53
2023-05-14T02:35:13.718Z,5.90
2023-05-14T02:37:47.050Z,6.00
2023-05-14T02:40:16.847Z,5.77
2023-05-14T02:42:46.225Z,5.30
2023-05-14T02:45:17.171Z,5.73
2023-05-14T02:47:46.178Z,6.40
2023-05-14T02:50:14.497Z,5.80
2023-05-14T02:52:44.712Z,5.60
2023-05-14T02:55:13.952Z,5.90
2023-05-14T02:57:42.290Z,5.93
2023-05-14T03:00:12.304Z,5.97
2023-05-14T03:02:43.645Z,5.77
2023-05-14T03:05:12.684Z,5.43
2023-05-14T03:07:41.193Z,5.83
2023-05-14T03:10:12.167Z,4.87
2023-05-14T03:12:40.886Z,5.50
2023-05-14T03:15:10.715Z,5.20
2023-05-14T03:17:39.329Z,5.77
2023-05-14T03:20:08.702Z,6.70
2023-05-14T03:22:37.542Z,5.10
2023-05-14T03:25:06.577Z,5.20
2023-05-14T03:27:36.487Z,5.40
2023-05-14T03:30:06.058Z,6.03
2023-05-14T03:32:36.150Z,6.10
2023-05-14T03:35:05.113Z,5.30
2023-05-14T03:37:34.611Z,5.20
2023-05-14T03:40:03.807Z,4.83
2023-05-14T03:42:36.765Z,5.40
2023-05-14T03:45:05.617Z,4.03
2023-05-14T03:47:34.274Z,4.70
2023-05-14T03:50:03.073Z,5.50
2023-05-14T03:52:34.204Z,5.70
2023-05-14T03:55:04.465Z,4.20
2023-05-14T03:57:36.048Z,4.60
2023-05-14T04:00:05.288Z,4.70
2023-05-14T04:02:45.399Z,4.53
2023-05-14T04:05:14.353Z,4.60
2023-05-14T04:07:45.959Z,4.23
2023-05-14T04:10:14.923Z,4.70
2023-05-14T04:12:45.057Z,4.80
2023-05-14T04:15:13.647Z,4.50
2023-05-14T04:17:43.951Z,5.13
2023-05-14T04:20:16.497Z,5.90
2023-05-14T04:22:44.947Z,5.30
2023-05-14T04:25:13.301Z,5.70
2023-05-14T04:27:42.239Z,5.27
2023-05-14T04:30:14.248Z,5.20
2023-05-14T04:32:43.115Z,4.93
2023-05-14T04:35:13.084Z,5.17
2023-05-14T04:37:42.246Z,5.50
2023-05-14T04:40:12.585Z,5.63
2023-05-14T04:42:41.545Z,5.43
2023-05-14T04:45:13.544Z,5.37
2023-05-14T04:47:42.786Z,4.90
2023-05-14T04:50:12.798Z,4.50
2023-05-14T04:52:41.585Z,5.60
2023-05-14T04:55:11.337Z,4.90
2023-05-14T04:57:40.782Z,4.77
2023-05-14T05:00:13.484Z,4.60
2023-05-14T05:02:44.410Z,4.93
2023-05-14T05:05:12.837Z,3.90
2023-05-14T05:07:41.855Z,4.70
2023-05-14T05:10:10.806Z,4.13
2023-05-14T05:12:39.752Z,4.77
2023-05-14T05:15:09.628Z,4.10
2023-05-14T05:17:42.047Z,3.70
2023-05-14T05:20:11.429Z,4.17
2023-05-14T05:22:40.179Z,3.57
2023-05-14T05:25:09.291Z,3.40
2023-05-14T05:27:37.751Z,3.10
2023-05-14T05:30:07.553Z,4.50
2023-05-14T05:32:39.237Z,4.57
2023-05-14T05:35:11.116Z,4.60
2023-05-14T05:37:39.470Z,4.63
2023-05-14T05:40:10.588Z,4.00
2023-05-14T05:42:39.067Z,4.03
2023-05-14T05:45:08.677Z,3.60
2023-05-14T05:47:36.862Z,3.87
2023-05-14T05:50:05.871Z,3.43
2023-05-14T05:52:35.520Z,3.43
2023-05-14T05:55:04.104Z,3.60
2023-05-14T05:57:32.302Z,4.20
2023-05-14T06:00:08.304Z,4.10
2023-05-14T06:02:42.379Z,3.83
2023-05-14T06:05:15.830Z,3.90
2023-05-14T06:07:48.277Z,3.70
2023-05-14T06:10:20.141Z,3.93
2023-05-14T06:12:49.382Z,4.10
2023-05-14T06:15:18.128Z,4.40
2023-05-14T06:17:48.391Z,4.40
2023-05-14T06:20:17.436Z,5.00
2023-05-14T06:22:48.040Z,4.00
2023-05-14T06:25:18.502Z,4.00
2023-05-14T06:27:50.078Z,4.50
2023-05-14T06:30:19.058Z,3.80
2023-05-14T06:32:50.123Z,4.60
2023-05-14T06:35:22.244Z,4.93
2023-05-14T06:37:53.523Z,4.10
2023-05-14T06:40:22.990Z,3.80
2023-05-14T06:42:52.793Z,4.30
2023-05-14T06:45:21.497Z,5.17
2023-05-14T06:47:50.737Z,4.57
2023-05-14T06:50:19.736Z,4.53
2023-05-14T06:52:48.602Z,4.80
2023-05-14T06:55:20.852Z,4.87
2023-05-14T06:57:50.678Z,4.53
2023-05-14T07:00:20.073Z,4.73
2023-05-14T07:02:49.300Z,4.70
2023-05-14T07:05:18.458Z,4.70
2023-05-14T07:07:46.638Z,3.77
2023-05-14T07:10:16.235Z,4.73
2023-05-14T07:12:46.500Z,4.90
2023-05-14T07:15:16.296Z,4.67
2023-05-14T07:17:44.719Z,4.53
2023-05-14T07:20:14.503Z,5.10
2023-05-14T07:22:42.747Z,4.50
2023-05-14T07:25:11.352Z,4.77
2023-05-14T07:27:40.532Z,4.53
2023-05-14T07:30:11.732Z,4.83
2023-05-14T07:32:40.775Z,4.63
2023-05-14T07:35:11.675Z,4.97
2023-05-14T07:37:40.565Z,4.20
2023-05-14T07:40:11.392Z,4.90
2023-05-14T07:42:40.181Z,4.50
2023-05-14T07:45:12.756Z,5.00
2023-05-14T07:47:42.275Z,4.60
2023-05-14T07:50:11.950Z,4.10
2023-05-14T07:52:41.098Z,4.93
2023-05-14T07:55:10.196Z,4.10
2023-05-14T07:57:38.624Z,5.07
2023-05-14T08:00:09.171Z,4.93
2023-05-14T08:02:46.559Z,5.00
2023-05-14T08:05:15.352Z,5.70
2023-05-14T08:07:44.187Z,5.73
2023-05-14T08:10:12.877Z,5.67
2023-05-14T08:12:41.886Z,5.10
2023-05-14T08:15:11.237Z,5.30
2023-05-14T08:17:40.714Z,5.30
2023-05-14T08:20:13.251Z,5.97
2023-05-14T08:22:42.003Z,5.00
2023-05-14T08:25:11.041Z,4.97
2023-05-14T08:27:42.082Z,4.60
2023-05-14T08:30:52.886Z,5.00
2023-05-14T08:33:21.823Z,4.60
2023-05-14T08:35:54.794Z,4.50
2023-05-14T08:38:23.263Z,4.93
2023-05-14T08:40:57.991Z,4.67
2023-05-14T08:43:28.661Z,5.00
2023-05-14T08:46:02.966Z,4.83
2023-05-14T08:48:38.107Z,4.43
2023-05-14T08:51:09.239Z,3.77
2023-05-14T08:53:38.589Z,4.03
2023-05-14T08:56:08.346Z,4.87
2023-05-14T08:58:36.754Z,4.10
2023-05-14T09:01:06.041Z,4.07
2023-05-14T09:03:37.531Z,4.97
2023-05-14T09:06:09.877Z,4.57
2023-05-14T09:08:38.835Z,4.23
2023-05-14T09:11:08.305Z,4.03
2023-05-14T09:13:39.758Z,4.43
2023-05-14T09:16:10.288Z,4.50
2023-05-14T09:18:38.964Z,3.83
2023-05-14T09:21:09.860Z,3.97
2023-05-14T09:23:43.570Z,3.87
2023-05-14T09:26:14.384Z,4.00
2023-05-14T09:28:43.196Z,3.90
2023-05-14T09:31:12.686Z,4.10
2023-05-14T09:33:43.781Z,4.20
2023-05-14T09:36:17.867Z,4.43
2023-05-14T09:38:47.133Z,4.40
2023-05-14T09:41:16.546Z,3.73
2023-05-14T09:43:45.734Z,3.37
2023-05-14T09:46:14.813Z,3.30
2023-05-14T09:48:43.634Z,3.10
2023-05-14T09:51:15.221Z,3.10
2023-05-14T09:53:46.066Z,3.23
2023-05-14T09:56:14.486Z,3.57
2023-05-14T09:58:44.638Z,3.37
2023-05-14T10:01:14.191Z,2.50
2023-05-14T10:03:42.579Z,3.17
2023-05-14T10:06:13.580Z,2.93
2023-05-14T10:08:48.458Z,2.60
2023-05-14T10:11:22.359Z,2.80
2023-05-14T10:13:59.861Z,2.20
2023-05-14T10:16:32.797Z,2.20
2023-05-14T10:19:07.615Z,2.30
2023-05-14T10:21:38.282Z,2.20
2023-05-14T10:24:10.619Z,1.80
2023-05-14T10:26:42.147Z,2.10
2023-05-14T10:29:12.528Z,2.03
2023-05-14T10:31:55.518Z,1.93
2023-05-14T10:34:40.975Z,2.10
2023-05-14T10:37:11.673Z,2.37
2023-05-14T10:39:51.117Z,2.40
2023-05-14T10:42:21.433Z,2.37
2023-05-14T10:44:56.982Z,2.40
2023-05-14T10:47:27.672Z,2.23
2023-05-14T10:50:00.480Z,2.43
2023-05-14T10:52:28.707Z,2.10
2023-05-14T10:55:03.400Z,2.30
2023-05-14T10:57:33.915Z,2.30
2023-05-14T11:00:09.051Z,2.23
2023-05-14T11:02:41.003Z,2.57
2023-05-14T11:05:15.038Z,2.30
2023-05-14T11:07:47.519Z,2.67
2023-05-14T11:10:18.820Z,2.20
2023-05-14T11:12:49.640Z,2.50
2023-05-14T11:15:21.749Z,2.27
2023-05-14T11:17:51.524Z,2.50
2023-05-14T11:20:22.506Z,2.40
2023-05-14T11:22:52.659Z,2.43
2023-05-14T11:25:25.662Z,2.40
2023-05-14T11:27:58.424Z,2.20
2023-05-14T11:30:26.966Z,2.10
2023-05-14T11:32:57.634Z,2.33
2023-05-14T11:35:30.054Z,2.57
2023-05-14T11:37:59.046Z,2.20
2023-05-14T11:40:29.185Z,2.10
2023-05-14T11:42:58.101Z,2.70
2023-05-14T11:45:27.493Z,2.17
2023-05-14T11:47:56.147Z,1.80
2023-05-14T11:50:27.336Z,2.53
2023-05-14T11:52:59.188Z,2.30
2023-05-14T11:55:30.439Z,2.20
2023-05-14T11:58:04.032Z,2.17
2023-05-14T12:00:34.448Z,2.10
2023-05-14T12:03:04.048Z,2.03
2023-05-14T12:05:32.601Z,2.57
2023-05-14T12:08:02.031Z,2.50
2023-05-14T12:10:43.492Z,1.93
2023-05-14T12:13:16.032Z,2.10
2023-05-14T12:15:47.287Z,2.03
2023-05-14T12:18:24.533Z,2.10
2023-05-14T12:20:55.564Z,2.40
2023-05-14T12:23:27.628Z,1.90
2023-05-14T12:26:02.165Z,2.17
2023-05-14T12:28:31.004Z,2.57
2023-05-14T12:31:00.282Z,2.10
2023-05-14T12:33:28.939Z,2.20
2023-05-14T12:36:14.090Z,2.60
2023-05-14T12:38:51.900Z,2.20
2023-05-14T12:41:22.439Z,2.90
2023-05-14T12:43:53.351Z,2.07
2023-05-14T12:46:22.625Z,2.20
2023-05-14T12:48:53.150Z,1.60
2023-05-14T12:51:23.255Z,2.20
2023-05-14T12:53:54.132Z,1.90
2023-05-14T12:56:28.540Z,1.83
2023-05-14T12:58:57.477Z,1.80
2023-05-14T13:01:26.254Z,1.70
2023-05-14T13:03:55.504Z,1.90
2023-05-14T13:06:24.595Z,1.73
2023-05-14T13:08:53.368Z,2.10
2023-05-14T13:11:23.686Z,1.70
2023-05-14T13:13:52.057Z,2.40
2023-05-14T13:16:20.656Z,1.93
2023-05-14T13:18:51.830Z,2.00
2023-05-14T13:21:20.728Z,2.10
2023-05-14T13:23:49.345Z,2.03
2023-05-14T13:26:18.137Z,1.97
2023-05-14T13:28:48.382Z,1.90
2023-05-14T13:31:16.744Z,2.17
2023-05-14T13:33:45.965Z,2.23
2023-05-14T13:36:16.108Z,2.00
2023-05-14T13:38:45.820Z,1.73
2023-05-14T13:41:14.763Z,2.00
2023-05-14T13:43:43.077Z,1.70
2023-05-14T13:46:15.471Z,1.80
2023-05-14T13:48:44.719Z,1.60
2023-05-14T13:51:16.668Z,1.90
2023-05-14T13:53:46.756Z,1.93
2023-05-14T13:56:16.058Z,1.87
2023-05-14T13:58:44.556Z,1.97
2023-05-14T14:01:15.172Z,2.07
2023-05-14T14:03:44.846Z,2.10
2023-05-14T14:06:13.978Z,1.60
2023-05-14T14:08:43.269Z,1.70
2023-05-14T14:11:12.945Z,1.87
2023-05-14T14:13:45.174Z,1.80
2023-05-14T14:16:17.959Z,2.20
2023-05-14T14:18:49.700Z,1.70
2023-05-14T14:21:20.969Z,1.60
2023-05-14T14:23:51.942Z,1.80
2023-05-14T14:26:22.050Z,1.80
2023-05-14T14:28:51.240Z,1.80
2023-05-14T14:31:21.777Z,1.97
2023-05-14T14:33:50.950Z,1.97
2023-05-14T14:36:19.805Z,2.20
2023-05-14T14:38:48.694Z,2.00
2023-05-14T14:41:17.240Z,1.73
2023-05-14T14:43:46.697Z,1.93
2023-05-14T14:46:15.638Z,1.90
2023-05-14T14:48:45.913Z,2.10
2023-05-14T14:51:15.111Z,2.00
2023-05-14T14:53:44.754Z,1.87
2023-05-14T14:56:17.523Z,1.80
2023-05-14T14:58:47.196Z,2.03
2023-05-14T15:01:17.626Z,1.70
2023-05-14T15:03:49.065Z,2.13
2023-05-14T15:06:18.178Z,1.90
2023-05-14T15:08:46.502Z,1.83
2023-05-14T15:11:15.692Z,2.10
2023-05-14T15:13:44.097Z,2.00
2023-05-14T15:16:13.881Z,1.80
2023-05-14T15:18:42.864Z,1.60
2023-05-14T15:21:15.038Z,1.90
2023-05-14T15:23:43.897Z,2.63
2023-05-14T15:26:13.192Z,1.90
2023-05-14T15:28:41.987Z,1.80
2023-05-14T15:31:10.697Z,1.70
2023-05-14T15:33:39.219Z,2.13
2023-05-14T15:36:08.341Z,1.87
2023-05-14T15:38:38.340Z,2.10
2023-05-14T15:41:07.056Z,2.00
2023-05-14T15:43:35.398Z,2.10
2023-05-14T15:46:04.179Z,1.80
2023-05-14T15:48:34.091Z,1.80
2023-05-14T15:51:03.334Z,2.00
2023-05-14T15:53:33.953Z,2.20
2023-05-14T15:56:05.369Z,1.70
2023-05-14T15:58:33.972Z,1.70
2023-05-14T16:01:04.197Z,1.97
2023-05-14T16:03:32.887Z,1.80
2023-05-14T16:06:01.852Z,1.93
2023-05-14T16:08:30.680Z,2.40
2023-05-14T16:10:59.635Z,2.03
2023-05-14T16:13:31.985Z,2.23
2023-05-14T16:16:01.595Z,2.07
2023-05-14T16:18:30.643Z,2.17
2023-05-14T16:21:00.137Z,2.23
2023-05-14T16:23:29.388Z,2.20
2023-05-14T16:25:58.216Z,2.37
2023-05-14T16:28:27.023Z,2.53
2023-05-14T16:30:57.159Z,2.20
2023-05-14T16:33:25.874Z,2.27
2023-05-14T16:35:55.608Z,2.53
2023-05-14T16:38:25.444Z,3.07
2023-05-14T16:40:54.068Z,2.67
2023-05-14T16:43:22.671Z,3.00
2023-05-14T16:45:51.099Z,2.97
2023-05-14T16:48:23.810Z,3.00
2023-05-14T16:50:52.294Z,3.20
2023-05-14T16:53:21.875Z,2.90
2023-05-14T16:55:50.659Z,3.20
2023-05-14T16:58:19.330Z,3.07
2023-05-14T17:00:48.152Z,3.33
2023-05-14T17:03:16.926Z,2.77
2023-05-14T17:05:47.483Z,3.60
2023-05-14T17:08:16.659Z,3.10
2023-05-14T17:10:45.033Z,2.90
2023-05-14T17:13:14.573Z,3.17
2023-05-14T17:15:43.801Z,3.73
2023-05-14T17:18:13.173Z,3.30
2023-05-14T17:20:42.399Z,3.30
2023-05-14T17:23:12.590Z,3.30
2023-05-14T17:25:42.437Z,3.60
2023-05-14T17:28:10.851Z,3.40
2023-05-14T17:30:39.180Z,3.57
2023-05-14T17:33:08.595Z,3.33
2023-05-14T17:35:37.594Z,2.93
2023-05-14T17:38:06.254Z,3.87
2023-05-14T17:40:36.591Z,4.00
2023-05-14T17:43:08.470Z,3.17
2023-05-14T17:45:52.577Z,3.73
2023-05-14T17:48:22.363Z,5.53
2023-05-14T17:53:45.574Z,9.10
2023-05-14T17:56:24.304Z,3.87
2023-05-14T17:58:58.235Z,3.40
2023-05-14T18:04:31.743Z,7.30
2023-05-14T18:07:03.162Z,3.13
2023-05-14T18:09:34.435Z,3.70
2023-05-14T18:12:04.442Z,3.27
2023-05-14T18:14:33.063Z,3.07
2023-05-14T18:17:04.439Z,3.10
2023-05-14T18:19:33.102Z,2.83
2023-05-14T18:22:03.669Z,3.30
2023-05-14T18:24:32.120Z,3.53
2023-05-14T18:27:01.301Z,3.10
2023-05-14T18:29:33.310Z,3.47
2023-05-14T18:32:03.241Z,3.13
2023-05-14T18:34:31.656Z,3.00
2023-05-14T18:37:00.372Z,2.80
2023-05-14T18:39:29.192Z,3.10
2023-05-14T18:41:57.907Z,3.43
2023-05-14T18:44:26.466Z,3.00
2023-05-14T18:46:56.787Z,3.20
2023-05-14T18:49:25.781Z,3.47
2023-05-14T18:51:54.581Z,2.87
2023-05-14T18:54:24.218Z,3.03
2023-05-14T18:56:53.333Z,3.30
2023-05-14T18:59:22.780Z,3.27
2023-05-14T19:01:51.601Z,3.90
2023-05-14T19:04:21.681Z,3.10
2023-05-14T19:06:50.213Z,3.47
2023-05-14T19:09:21.319Z,3.60
2023-05-14T19:11:51.321Z,3.50
2023-05-14T19:14:20.727Z,3.40
2023-05-14T19:16:49.545Z,3.10
2023-05-14T19:19:18.477Z,3.60
2023-05-14T19:21:48.527Z,2.97
2023-05-14T19:24:18.138Z,3.67
2023-05-14T19:26:46.927Z,3.63
2023-05-14T19:29:17.834Z,4.27
2023-05-14T19:31:46.098Z,3.20
2023-05-14T19:34:14.900Z,4.10
2023-05-14T19:36:43.615Z,3.60
2023-05-14T19:39:13.790Z,3.97
2023-05-14T19:41:42.060Z,4.40
2023-05-14T19:44:10.665Z,3.97
2023-05-14T19:46:39.579Z,4.20
2023-05-14T19:49:08.786Z,3.63
2023-05-14T19:51:37.397Z,3.77
2023-05-14T19:54:06.809Z,3.73
2023-05-14T19:56:38.517Z,4.17
2023-05-14T19:59:07.705Z,4.23
2023-05-14T20:01:39.909Z,4.00
2023-05-14T20:04:11.556Z,4.60
2023-05-14T20:06:41.742Z,4.07
2023-05-14T20:09:10.209Z,3.90
2023-05-14T20:11:40.734Z,4.67
2023-05-14T20:14:09.116Z,4.90
2023-05-14T20:16:38.743Z,4.87
2023-05-14T20:19:09.028Z,4.50
2023-05-14T20:21:37.971Z,4.50
2023-05-14T20:24:08.229Z,4.73
2023-05-14T20:26:37.122Z,4.80
2023-05-14T20:29:09.210Z,4.30
2023-05-14T20:31:38.244Z,4.60
2023-05-14T20:34:09.506Z,4.30
2023-05-14T20:36:38.423Z,4.30
2023-05-14T20:39:09.054Z,4.10
2023-05-14T20:41:37.695Z,4.37
2023-05-14T20:44:08.215Z,4.47
2023-05-14T20:46:36.528Z,4.57
2023-05-14T20:49:05.410Z,4.40
2023-05-14T20:51:34.176Z,4.43
2023-05-14T20:54:03.113Z,4.47
2023-05-14T20:56:31.390Z,5.20
2023-05-14T20:59:01.381Z,4.07
2023-05-14T21:01:31.961Z,4.27
2023-05-14T21:04:00.803Z,4.40
2023-05-14T21:06:29.764Z,4.00
2023-05-14T21:08:58.652Z,4.10
2023-05-14T21:11:27.535Z,4.63
2023-05-14T21:13:56.190Z,4.20
2023-05-14T21:16:25.051Z,4.33
2023-05-14T21:18:55.617Z,4.47
2023-05-14T21:21:26.140Z,4.80
2023-05-14T21:23:56.746Z,4.80
2023-05-14T21:26:26.302Z,4.37
2023-05-14T21:28:55.264Z,5.00
2023-05-14T21:31:23.595Z,5.43
2023-05-14T21:33:52.236Z,6.70
2023-05-14T21:36:22.529Z,6.83
2023-05-14T21:38:51.761Z,6.33
2023-05-14T21:41:21.444Z,6.77
2023-05-14T21:43:50.964Z,7.63
2023-05-14T21:46:21.457Z,7.03
2023-05-14T21:48:50.355Z,7.87
2023-05-14T21:51:18.981Z,7.17
2023-05-14T21:53:51.248Z,7.50
2023-05-14T21:56:23.112Z,6.87
2023-05-14T21:58:53.237Z,6.53
2023-05-14T22:01:23.870Z,7.10
2023-05-14T22:03:52.705Z,7.47
2023-05-14T22:06:22.741Z,8.27
2023-05-14T22:08:55.076Z,7.30
2023-05-14T22:11:24.590Z,8.10
2023-05-14T22:13:53.698Z,7.97
2023-05-14T22:16:23.625Z,8.10
2023-05-14T22:18:52.697Z,8.23
2023-05-14T22:21:21.908Z,8.83
2023-05-14T22:23:51.322Z,8.37
2023-05-14T22:26:21.964Z,9.50
2023-05-14T22:28:53.092Z,9.40
2023-05-14T22:31:23.501Z,8.47
2023-05-14T22:33:54.162Z,8.53
2023-05-14T22:36:23.182Z,8.53
2023-05-14T22:38:52.032Z,8.63
2023-05-14T22:41:22.180Z,8.57
2023-05-14T22:43:51.666Z,8.30
2023-05-14T22:46:20.338Z,8.60
2023-05-14T22:48:50.215Z,8.40
2023-05-14T22:51:18.900Z,8.33
2023-05-14T22:53:48.601Z,8.83
2023-05-14T22:56:17.158Z,8.37
2023-05-14T22:58:46.908Z,8.70
2023-05-14T23:01:16.113Z,9.57
2023-05-14T23:03:44.586Z,8.27
2023-05-14T23:06:15.164Z,9.37
2023-05-14T23:08:43.908Z,9.27
2023-05-14T23:11:13.769Z,10.40
2023-05-14T23:13:42.497Z,9.70
2023-05-14T23:16:13.878Z,9.47
2023-05-14T23:18:42.989Z,9.97
2023-05-14T23:21:12.738Z,10.77
2023-05-14T23:23:42.343Z,10.27
2023-05-14T23:26:13.151Z,9.73
2023-05-14T23:28:42.809Z,10.40
2023-05-14T23:31:13.053Z,10.57
2023-05-14T23:33:44.745Z,10.00
2023-05-14T23:36:13.483Z,9.40
2023-05-14T23:38:44.803Z,10.17
2023-05-14T23:41:13.234Z,12.40
2023-05-14T23:43:43.043Z,12.27
2023-05-14T23:46:14.056Z,12.47
2023-05-14T23:48:46.978Z,10.73
2023-05-14T23:51:18.695Z,12.10
2023-05-14T23:53:48.407Z,12.13
2023-05-14T23:56:17.121Z,12.80
2023-05-14T23:58:47.291Z,11.87
